Time;durP1;ratioP1;P1;durP2;ratioP2;P2;SDS_P1;SDS_P2;PMS_P1;PMS_P2;Temp;Humidity;BMP_temperature;BMP_pressure;BME280_temperature;BME280_humidity;BME280_pressure;Samples;Min_cycle;Max_cycle;Signal;HPM_P1;HPM_P2
2021/11/03 00:01:32;;;;;;;8.13;4.88;;;;;;;18.11;39.33;100290.81;5033735;28;20373;-73
2021/11/03 00:04:00;;;;;;;7.72;3.85;;;;;;;18.25;39.08;100282.69;5033444;28;20036;-74
2021/11/03 00:06:27;;;;;;;7.60;3.70;;;;;;;18.16;39.19;100289.69;5033663;28;20037;-73
2021/11/03 00:08:56;;;;;;;6.07;3.80;;;;;;;18.17;39.09;100292.06;5033968;28;20036;-73
2021/11/03 00:11:22;;;;;;;10.02;4.45;;;;;;;18.17;39.06;100297.59;5033877;28;20037;-74
2021/11/03 00:13:48;;;;;;;10.38;5.57;;;;;;;18.03;39.56;100300.97;5033438;28;20400;-73
2021/11/03 00:16:13;;;;;;;8.52;4.65;;;;;;;18.12;39.31;100303.44;5033513;28;20017;-73
2021/11/03 00:18:39;;;;;;;10.68;5.07;;;;;;;18.09;39.27;100301.44;5033343;28;20427;-73
2021/11/03 00:21:06;;;;;;;9.82;4.80;;;;;;;17.96;39.53;100306.41;5033205;28;20035;-73
2021/11/03 00:23:32;;;;;;;7.95;4.60;;;;;;;17.89;39.64;100311.03;5033879;28;20022;-72
2021/11/03 00:25:58;;;;;;;7.57;4.38;;;;;;;17.82;39.88;100306.19;5033566;28;20022;-72
2021/11/03 00:28:24;;;;;;;7.80;3.90;;;;;;;17.82;39.84;100317.22;5015847;28;20026;-73
2021/11/03 00:30:53;;;;;;;6.38;4.15;;;;;;;17.88;39.48;100315.75;5033158;28;20618;-72
2021/11/03 00:33:20;;;;;;;8.50;3.95;;;;;;;17.86;39.63;100317.31;5033186;28;20022;-74
2021/11/03 00:35:46;;;;;;;10.38;4.53;;;;;;;17.86;39.51;100322.84;5033336;28;20025;-72
2021/11/03 00:38:12;;;;;;;8.68;3.83;;;;;;;17.81;39.42;100328.66;5032969;28;20080;-72
2021/11/03 00:40:38;;;;;;;6.00;3.47;;;;;;;17.76;39.83;100327.03;5032979;28;20025;-73
2021/11/03 00:43:04;;;;;;;6.90;4.03;;;;;;;17.79;39.62;100325.50;5032875;28;20108;-73
2021/11/03 00:45:29;;;;;;;6.53;3.60;;;;;;;17.70;39.83;100329.31;5032934;28;20101;-74
2021/11/03 00:47:55;;;;;;;8.30;3.58;;;;;;;17.63;39.93;100331.94;5032907;28;20170;-72
2021/11/03 00:50:22;;;;;;;5.78;3.70;;;;;;;17.64;40.08;100329.97;5032771;28;20030;-72
2021/11/03 00:52:48;;;;;;;5.75;3.33;;;;;;;17.60;40.02;100338.19;5032812;28;20017;-72
2021/11/03 00:55:14;;;;;;;6.38;3.50;;;;;;;17.66;39.98;100333.94;5032726;28;20025;-72
2021/11/03 00:57:40;;;;;;;11.10;3.42;;;;;;;17.71;40.01;100339.19;5032950;28;20032;-73
2021/11/03 01:00:11;;;;;;;6.63;3.05;;;;;;;17.48;40.44;100339.19;5032507;28;20032;-73
2021/11/03 01:02:37;;;;;;;5.63;2.90;;;;;;;17.66;40.16;100338.66;5032564;28;20086;-73
2021/11/03 01:05:04;;;;;;;9.75;3.05;;;;;;;17.57;40.33;100338.13;5032263;28;20049;-72
2021/11/03 01:07:30;;;;;;;6.55;2.75;;;;;;;17.40;40.72;100336.69;5032562;28;20028;-73
2021/11/03 01:09:56;;;;;;;6.65;2.80;;;;;;;17.64;40.27;100332.72;5032604;28;20033;-72
2021/11/03 01:12:22;;;;;;;9.07;2.55;;;;;;;17.68;40.26;100334.38;5032575;28;20033;-72
2021/11/03 01:14:47;;;;;;;5.50;2.63;;;;;;;17.76;40.22;100349.16;5014749;28;20030;-73
2021/11/03 01:17:13;;;;;;;6.82;3.05;;;;;;;17.62;40.45;100341.38;5032471;28;20026;-73
2021/11/03 01:19:39;;;;;;;5.78;2.63;;;;;;;17.53;40.62;100343.59;5032711;28;20129;-72
2021/11/03 01:22:04;;;;;;;9.50;3.22;;;;;;;17.50;40.96;100344.34;5032372;28;20472;-72
2021/11/03 01:24:30;;;;;;;7.28;2.78;;;;;;;17.57;40.80;100347.22;5032477;28;20024;-73
2021/11/03 01:26:55;;;;;;;6.05;2.58;;;;;;;17.46;40.97;100349.00;5032336;28;20033;-72
2021/11/03 01:29:21;;;;;;;15.30;3.67;;;;;;;17.64;40.56;100350.09;5032387;28;20087;-73
2021/11/03 01:31:47;;;;;;;5.40;2.88;;;;;;;17.73;40.26;100347.91;5032368;28;20022;-72
2021/11/03 01:34:13;;;;;;;5.18;2.70;;;;;;;17.74;40.37;100359.75;5032285;28;20017;-73
2021/11/03 01:36:38;;;;;;;7.65;3.10;;;;;;;17.71;40.48;100360.50;5032343;28;20021;-73
2021/11/03 01:39:07;;;;;;;7.03;2.50;;;;;;;17.73;40.43;100369.22;5032239;28;20013;-73
2021/11/03 01:41:32;;;;;;;9.05;3.40;;;;;;;17.66;40.55;100361.56;5032041;28;20101;-73
2021/11/03 01:44:16;;;;;;;6.72;2.85;;;;;;;17.16;41.62;100369.00;5032059;28;20109;-72
2021/11/03 01:46:43;;;;;;;7.20;3.13;;;;;;;17.52;40.93;100372.38;5032236;28;20423;-73
2021/11/03 01:49:18;;;;;;;5.30;2.72;;;;;;;17.44;41.00;100376.97;5032281;28;20029;-73
2021/11/03 01:52:00;;;;;;;6.22;2.90;;;;;;;17.25;41.31;100376.25;5032168;28;20525;-72
2021/11/03 01:54:48;;;;;;;11.10;2.40;;;;;;;17.37;41.33;100374.09;5032372;28;20545;-72
2021/11/03 01:57:34;;;;;;;7.05;2.75;;;;;;;17.48;41.05;100374.28;5031174;28;20594;-72
2021/11/03 02:00:15;;;;;;;7.75;2.53;;;;;;;17.31;41.61;100375.59;5032098;28;20029;-72
2021/11/03 02:02:42;;;;;;;9.00;2.70;;;;;;;17.56;41.21;100376.00;5032012;28;20036;-72
2021/11/03 02:05:10;;;;;;;10.18;4.00;;;;;;;17.57;40.78;100387.84;5031831;28;20064;-72
2021/11/03 02:07:37;;;;;;;9.32;2.53;;;;;;;17.60;40.49;100384.34;5031850;28;20022;-72
2021/11/03 02:10:04;;;;;;;9.32;3.10;;;;;;;17.69;40.53;100388.47;5032052;28;20053;-72
2021/11/03 02:12:30;;;;;;;7.88;3.15;;;;;;;17.57;40.70;100393.38;5032277;28;20057;-72
2021/11/03 02:14:56;;;;;;;7.22;2.53;;;;;;;17.43;41.08;100393.94;5032036;28;20411;-72
2021/11/03 02:17:24;;;;;;;6.57;2.40;;;;;;;17.47;41.12;100408.59;5014218;28;20030;-74
2021/11/03 02:19:51;;;;;;;6.22;2.40;;;;;;;17.49;41.10;100397.97;5034205;28;20029;-72
2021/11/03 02:22:27;;;;;;;6.50;2.00;;;;;;;17.44;41.14;100415.66;5035905;28;20033;-73
2021/11/03 02:25:13;;;;;;;9.43;2.53;;;;;;;17.64;40.60;100408.13;5035474;28;20021;-74
2021/11/03 02:27:43;;;;;;;5.97;2.33;;;;;;;17.70;40.48;100409.44;5035308;28;20033;-72
2021/11/03 02:30:12;;;;;;;7.80;2.50;;;;;;;17.61;40.41;100419.91;5017703;28;20033;-73
2021/11/03 02:32:41;;;;;;;5.32;2.13;;;;;;;17.68;40.32;100420.03;5017400;28;20029;-72
2021/11/03 02:35:07;;;;;;;7.00;2.28;;;;;;;17.70;40.31;100426.00;5018008;28;20559;-73
2021/11/03 02:37:32;;;;;;;5.20;2.35;;;;;;;17.74;40.09;100426.06;5035306;28;20116;-73
2021/11/03 02:40:06;;;;;;;5.57;2.08;;;;;;;17.61;40.27;100433.72;5035110;28;20025;-72
2021/11/03 02:42:36;;;;;;;7.53;2.20;;;;;;;17.64;40.18;100434.94;5035361;28;20053;-72
2021/11/03 02:45:09;;;;;;;7.85;2.95;;;;;;;17.63;40.12;100436.13;5017500;28;20029;-72
2021/11/03 02:47:35;;;;;;;6.47;2.20;;;;;;;17.66;40.24;100441.69;5035237;28;20112;-72
2021/11/03 02:50:02;;;;;;;5.60;2.05;;;;;;;17.69;40.11;100442.94;5035121;28;20079;-72
2021/11/03 02:52:28;;;;;;;5.75;1.95;;;;;;;17.68;40.36;100444.06;5035089;28;20049;-72
2021/11/03 02:54:54;;;;;;;6.32;2.20;;;;;;;17.68;40.03;100436.63;5035025;28;20108;-73
2021/11/03 02:57:20;;;;;;;6.75;2.50;;;;;;;17.69;40.04;100435.44;5034970;28;20064;-72
2021/11/03 02:59:46;;;;;;;6.70;2.67;;;;;;;17.72;39.80;100437.50;5034931;28;20030;-72
2021/11/03 03:02:13;;;;;;;7.68;2.50;;;;;;;17.75;39.80;100435.94;5034963;28;20446;-72
2021/11/03 03:04:56;;;;;;;7.85;2.58;;;;;;;17.62;40.18;100435.31;5016786;28;20040;-72
2021/11/03 03:07:22;;;;;;;5.95;1.77;;;;;;;17.69;40.11;100446.50;5034754;28;20021;-73
2021/11/03 03:09:48;;;;;;;7.63;2.35;;;;;;;17.63;40.09;100442.44;5034758;28;20435;-72
2021/11/03 03:12:18;;;;;;;5.13;2.33;;;;;;;17.60;40.02;100434.06;5034664;28;20029;-72
2021/11/03 03:14:45;;;;;;;5.88;2.47;;;;;;;17.59;39.97;100449.06;5034674;28;20527;-74
2021/11/03 03:17:13;;;;;;;6.15;2.33;;;;;;;17.55;40.13;100440.72;5034625;28;20061;-73
2021/11/03 03:19:41;;;;;;;5.28;1.83;;;;;;;17.57;40.05;100443.91;5034487;28;20025;-72
2021/11/03 03:22:06;;;;;;;10.73;2.60;;;;;;;17.49;40.40;100453.22;5034417;28;20025;-72
2021/11/03 03:24:32;;;;;;;6.10;2.05;;;;;;;17.56;39.92;100447.84;5034286;28;20052;-73
2021/11/03 03:26:58;;;;;;;4.53;2.13;;;;;;;17.22;40.74;100446.78;5034328;28;20069;-73
2021/11/03 03:29:23;;;;;;;6.70;2.58;;;;;;;17.37;40.73;100450.63;5034412;28;20033;-72
2021/11/03 03:31:49;;;;;;;7.80;2.28;;;;;;;17.45;40.13;100449.59;5034244;28;20387;-73
2021/11/03 03:34:18;;;;;;;9.30;2.30;;;;;;;17.48;40.33;100454.41;5034283;28;20021;-72
2021/11/03 03:36:45;;;;;;;12.30;4.10;;;;;;;17.48;40.47;100454.41;5016483;28;20025;-73
2021/11/03 03:39:13;;;;;;;8.05;3.03;;;;;;;17.48;40.44;100459.91;5016497;28;20087;-73
2021/11/03 03:41:41;;;;;;;6.72;2.22;;;;;;;17.55;40.15;100460.06;5034049;28;20022;-74
2021/11/03 03:44:07;;;;;;;11.88;4.22;;;;;;;17.55;40.15;100462.81;5034049;28;20056;-73
2021/11/03 03:46:33;;;;;;;6.10;1.90;;;;;;;17.57;40.12;100471.53;5034158;28;20105;-74
2021/11/03 03:48:59;;;;;;;6.68;2.42;;;;;;;17.64;40.10;100471.66;5034349;28;20116;-74
2021/11/03 03:51:25;;;;;;;4.38;1.98;;;;;;;17.52;40.51;100479.31;5034016;28;20437;-73
2021/11/03 03:53:51;;;;;;;5.68;2.20;;;;;;;17.60;40.22;100481.84;5033896;28;20048;-73
2021/11/03 03:56:18;;;;;;;7.65;1.98;;;;;;;17.53;40.40;100487.22;5033819;28;20163;-73
2021/11/03 03:58:45;;;;;;;7.35;2.15;;;;;;;17.64;39.98;100488.22;5033790;28;20032;-73
2021/11/03 04:01:13;;;;;;;7.25;2.42;;;;;;;17.60;40.14;100489.31;5033947;28;20029;-72
2021/11/03 04:03:40;;;;;;;6.75;2.28;;;;;;;17.42;40.51;100492.56;5033402;28;20026;-72
2021/11/03 04:06:06;;;;;;;10.00;2.85;;;;;;;17.57;40.24;100488.09;5033491;28;20045;-72
2021/11/03 04:08:32;;;;;;;5.38;1.75;;;;;;;17.53;40.26;100487.22;5033609;28;20113;-73
2021/11/03 04:10:59;;;;;;;6.75;1.90;;;;;;;17.57;40.15;100499.16;5033931;28;20025;-73
2021/11/03 04:13:26;;;;;;;5.93;2.08;;;;;;;17.57;40.10;100498.34;5033555;28;20490;-72
2021/11/03 04:15:53;;;;;;;6.88;2.22;;;;;;;17.51;40.07;100495.09;5033382;28;20040;-72
2021/11/03 04:18:20;;;;;;;4.00;2.08;;;;;;;17.51;40.21;100491.53;5033347;28;20486;-72
2021/11/03 04:20:45;;;;;;;6.80;2.20;;;;;;;17.49;40.29;100497.41;5033476;28;20033;-72
2021/11/03 04:23:11;;;;;;;7.68;2.25;;;;;;;17.54;40.12;100510.16;5033375;28;20554;-72
2021/11/03 04:25:37;;;;;;;7.20;2.08;;;;;;;17.53;40.11;100509.31;5033201;28;20034;-74
2021/11/03 04:28:03;;;;;;;7.38;2.22;;;;;;;17.55;40.42;100520.81;5033076;28;20041;-72
2021/11/03 04:30:30;;;;;;;5.75;2.25;;;;;;;17.57;40.09;100524.00;5033486;28;20135;-72
2021/11/03 04:32:56;;;;;;;7.00;2.20;;;;;;;17.39;40.31;100520.91;5033075;28;20087;-72
2021/11/03 04:35:21;;;;;;;7.47;2.03;;;;;;;17.35;40.42;100527.53;5033392;28;20045;-73
2021/11/03 04:37:47;;;;;;;5.18;1.55;;;;;;;17.46;40.49;100536.84;5033342;28;20037;-73
2021/11/03 04:40:17;;;;;;;7.00;2.50;;;;;;;17.42;40.18;100552.53;5033238;28;20115;-72
2021/11/03 04:42:43;;;;;;;10.63;2.10;;;;;;;17.36;40.55;100543.72;5032531;28;20033;-72
2021/11/03 04:45:10;;;;;;;6.85;2.10;;;;;;;17.44;40.25;100531.66;5032976;28;20029;-72
2021/11/03 04:47:36;;;;;;;5.15;2.05;;;;;;;17.37;40.33;100536.22;5032941;28;20025;-73
2021/11/03 04:50:07;;;;;;;6.30;2.58;;;;;;;17.23;40.71;100546.97;5032892;28;20091;-73
2021/11/03 04:52:33;;;;;;;5.25;1.92;;;;;;;17.28;40.63;100547.50;5032767;28;20025;-72
2021/11/03 04:54:58;;;;;;;17.42;5.03;;;;;;;17.39;40.41;100537.47;5032613;28;20025;-72
2021/11/03 04:57:24;;;;;;;6.22;2.45;;;;;;;17.28;40.71;100543.94;5032906;28;20035;-72
2021/11/03 04:59:49;;;;;;;7.18;2.45;;;;;;;17.26;40.62;100543.50;5032930;28;20434;-73
2021/11/03 05:02:16;;;;;;;8.80;2.85;;;;;;;17.18;41.11;100548.88;5032681;28;20411;-72
2021/11/03 05:04:42;;;;;;;5.18;1.90;;;;;;;17.08;41.45;100548.66;5032151;28;20186;-72
2021/11/03 05:07:09;;;;;;;12.00;2.22;;;;;;;16.81;41.95;100555.94;5032619;28;20052;-73
2021/11/03 05:09:35;;;;;;;6.65;2.30;;;;;;;17.14;41.49;100550.75;5032564;28;20410;-74
2021/11/03 05:12:01;;;;;;;2.90;1.92;;;;;;;17.38;40.68;100562.69;5032538;28;20025;-72
2021/11/03 05:14:27;;;;;;;6.63;1.67;;;;;;;17.46;40.38;100558.94;5032600;28;20109;-73
2021/11/03 05:16:53;;;;;;;7.57;2.53;;;;;;;17.08;41.45;100560.50;5032508;28;20031;-72
2021/11/03 05:19:26;;;;;;;3.17;1.60;;;;;;;17.36;40.73;100563.06;5014716;28;20496;-72
2021/11/03 05:21:54;;;;;;;12.63;1.60;;;;;;;17.41;40.71;100570.25;5032439;28;20120;-72
2021/11/03 05:24:20;;;;;;;5.85;2.78;;;;;;;17.43;40.38;100577.00;5032030;28;20112;-73
2021/11/03 05:26:48;;;;;;;5.80;1.52;;;;;;;17.46;40.52;100568.00;5032368;28;20030;-73
2021/11/03 05:29:15;;;;;;;3.35;1.40;;;;;;;17.44;40.50;100569.53;5032347;28;20108;-73
2021/11/03 05:31:40;;;;;;;7.63;1.70;;;;;;;17.35;40.78;100569.75;5031148;28;20033;-72
2021/11/03 05:34:06;;;;;;;5.05;2.03;;;;;;;17.17;41.21;100582.38;5030680;28;20132;-73
2021/11/03 05:36:32;;;;;;;6.63;1.70;;;;;;;17.36;40.67;100576.06;5031996;28;20387;-72
2021/11/03 05:39:11;;;;;;;4.95;1.70;;;;;;;17.13;41.22;100593.31;5032592;28;20061;-72
2021/11/03 05:41:38;;;;;;;7.78;1.92;;;;;;;17.26;40.74;100588.50;5032022;28;20033;-72
2021/11/03 05:44:17;;;;;;;8.00;1.80;;;;;;;17.33;40.76;100582.31;5032009;28;20112;-73
2021/11/03 05:46:46;;;;;;;5.68;1.40;;;;;;;17.41;40.42;100595.91;5032292;28;20111;-72
2021/11/03 05:49:14;;;;;;;4.03;1.70;;;;;;;17.34;40.68;100595.75;5032168;28;20029;-72
2021/11/03 05:51:46;;;;;;;3.10;1.35;;;;;;;17.25;41.03;100600.69;5014440;28;20487;-72
2021/11/03 05:54:12;;;;;;;5.47;1.98;;;;;;;17.43;40.64;100595.53;5032331;28;20383;-72
2021/11/03 05:56:39;;;;;;;3.72;1.60;;;;;;;17.36;40.96;100603.69;5038208;28;20045;-72
2021/11/03 05:59:05;;;;;;;6.47;2.50;;;;;;;17.35;40.88;100607.59;5055610;28;20029;-72
2021/11/03 06:01:31;;;;;;;4.15;1.50;;;;;;;17.41;40.45;100606.97;5055887;28;20035;-72
2021/11/03 06:03:56;;;;;;;8.88;1.65;;;;;;;17.40;40.85;100621.13;5055835;28;20021;-72
2021/11/03 06:06:23;;;;;;;6.47;1.52;;;;;;;17.52;40.30;100618.22;5054872;28;20047;-72
2021/11/03 06:08:50;;;;;;;2.92;1.40;;;;;;;17.57;40.19;100628.19;5053089;28;20017;-73
2021/11/03 06:11:18;;;;;;;4.30;1.50;;;;;;;17.26;40.99;100620.81;5035665;28;20026;-72
2021/11/03 06:13:44;;;;;;;4.80;1.50;;;;;;;17.54;40.33;100626.16;5053923;28;20055;-72
2021/11/03 06:16:10;;;;;;;6.18;1.50;;;;;;;17.54;40.13;100617.88;5055488;28;20028;-72
2021/11/03 06:18:36;;;;;;;2.58;1.98;;;;;;;17.54;40.11;100620.66;5037870;28;20498;-72
2021/11/03 06:21:03;;;;;;;3.80;1.98;;;;;;;17.41;40.66;100625.50;5054005;28;20483;-72
2021/11/03 06:23:29;;;;;;;7.30;1.65;;;;;;;17.40;40.57;100630.22;5055247;28;20028;-72
2021/11/03 06:25:54;;;;;;;4.60;1.65;;;;;;;17.45;40.44;100637.41;5055315;28;20483;-72
2021/11/03 06:28:20;;;;;;;3.30;1.15;;;;;;;17.53;40.26;100635.59;5055406;28;20104;-73
2021/11/03 06:30:46;;;;;;;3.95;1.40;;;;;;;17.44;40.69;100641.34;5055710;28;20056;-72
2021/11/03 06:33:13;;;;;;;5.88;1.30;;;;;;;17.53;40.12;100646.66;5055406;28;20499;-72
2021/11/03 06:35:39;;;;;;;5.15;1.20;;;;;;;17.44;40.59;100644.91;5055261;28;20502;-73
2021/11/03 06:38:06;;;;;;;5.15;1.45;;;;;;;17.30;41.04;100641.03;5055216;28;20021;-73
2021/11/03 06:40:33;;;;;;;8.23;1.70;;;;;;;17.39;40.81;100653.47;5055169;28;20115;-73
2021/11/03 06:42:59;;;;;;;4.88;1.60;;;;;;;17.45;40.73;100640.97;5054955;28;20033;-73
2021/11/03 06:45:26;;;;;;;2.85;1.55;;;;;;;17.58;40.27;100646.38;5054545;28;20431;-74
2021/11/03 06:47:52;;;;;;;4.22;1.80;;;;;;;17.40;40.71;100648.75;5037262;28;20395;-72
2021/11/03 06:50:25;;;;;;;6.70;2.30;;;;;;;17.55;40.40;100650.66;5054723;28;20468;-71
2021/11/03 06:52:52;;;;;;;3.05;1.67;;;;;;;17.56;40.44;100654.22;5055047;28;20025;-71
2021/11/03 06:55:18;;;;;;;7.72;1.73;;;;;;;17.58;40.49;100655.47;5054862;28;20057;-71
2021/11/03 06:57:44;;;;;;;5.88;1.77;;;;;;;17.46;40.64;100659.16;5054796;28;20064;-72
2021/11/03 07:00:19;;;;;;;6.07;1.55;;;;;;;17.60;40.49;100663.38;5054758;28;20433;-72
2021/11/03 07:02:44;;;;;;;4.22;1.50;;;;;;;17.14;41.52;100674.19;5054639;28;20033;-71
2021/11/03 07:05:11;;;;;;;4.68;1.77;;;;;;;17.46;40.85;100680.47;5053927;28;20052;-72
2021/11/03 07:07:37;;;;;;;6.90;1.83;;;;;;;17.35;41.03;100694.00;5054990;28;20033;-71
2021/11/03 07:10:05;;;;;;;5.85;1.40;;;;;;;17.51;40.63;100685.69;5054533;28;20548;-71
2021/11/03 07:12:31;;;;;;;4.40;1.92;;;;;;;17.58;40.49;100690.56;5054717;28;20028;-71
2021/11/03 07:14:57;;;;;;;6.10;1.70;;;;;;;17.38;41.01;100687.78;5036665;28;20036;-72
2021/11/03 07:17:22;;;;;;;4.25;1.20;;;;;;;17.58;40.58;100693.34;5054142;28;20155;-72
2021/11/03 07:19:48;;;;;;;6.20;1.83;;;;;;;17.46;40.81;100689.56;5054501;28;20471;-72
2021/11/03 07:22:13;;;;;;;3.92;1.30;;;;;;;17.44;40.78;100696.56;5054509;28;20471;-71
2021/11/03 07:24:39;;;;;;;7.18;1.40;;;;;;;17.40;40.95;100702.03;5054277;28;20613;-71
2021/11/03 07:27:05;;;;;;;2.47;1.33;;;;;;;17.51;40.74;100710.53;5054612;28;20035;-71
2021/11/03 07:29:31;;;;;;;4.93;1.55;;;;;;;17.38;41.05;100709.06;5054233;28;20549;-71
2021/11/03 07:31:57;;;;;;;5.55;1.45;;;;;;;17.49;40.69;100712.88;5054319;28;20024;-71
2021/11/03 07:34:22;;;;;;;4.57;1.80;;;;;;;17.52;40.68;100723.19;5054226;28;20485;-70
2021/11/03 07:36:49;;;;;;;3.72;1.30;;;;;;;17.59;40.56;100723.34;5054250;28;20032;-71
2021/11/03 07:39:15;;;;;;;4.75;1.83;;;;;;;17.42;40.81;100724.56;5054149;28;20428;-71
2021/11/03 07:41:40;;;;;;;5.40;1.45;;;;;;;17.42;40.84;100727.31;5053776;28;20166;-71
2021/11/03 07:44:06;;;;;;;3.75;1.20;;;;;;;17.59;40.65;100726.13;5053920;28;20112;-72
2021/11/03 07:46:33;;;;;;;6.07;1.42;;;;;;;17.61;40.48;100739.59;5053873;28;20104;-71
2021/11/03 07:48:59;;;;;;;3.83;1.55;;;;;;;17.73;40.64;100745.00;5053963;28;20036;-73
2021/11/03 07:51:26;;;;;;;5.88;1.65;;;;;;;17.56;40.83;100748.94;5053817;28;20067;-71
2021/11/03 07:53:51;;;;;;;3.75;1.50;;;;;;;17.61;40.77;100753.41;5053809;28;20052;-71
2021/11/03 07:56:22;;;;;;;5.80;1.50;;;;;;;17.69;40.66;100749.66;5053710;28;20496;-71
2021/11/03 07:58:50;;;;;;;5.22;1.50;;;;;;;17.78;40.37;100757.75;5035896;28;20032;-71
2021/11/03 08:01:16;;;;;;;4.43;1.80;;;;;;;17.85;40.16;100760.69;5053635;28;20037;-72
2021/11/03 08:03:42;;;;;;;4.85;1.42;;;;;;;17.85;40.15;100758.72;5053657;28;20033;-71
2021/11/03 08:06:10;;;;;;;8.48;2.78;;;;;;;17.79;40.66;100765.69;5053070;28;20049;-73
2021/11/03 08:08:42;;;;;;;8.65;5.25;;;;;;;17.89;40.58;100761.53;5053584;28;20380;-72
2021/11/03 08:11:08;;;;;;;7.80;3.15;;;;;;;17.90;40.47;100779.72;5053752;28;20056;-71
2021/11/03 08:13:36;;;;;;;8.55;2.38;;;;;;;18.00;40.42;100779.97;5053368;28;20467;-71
2021/11/03 08:16:05;;;;;;;5.30;1.90;;;;;;;17.87;40.77;100789.56;5034966;28;20029;-72
2021/11/03 08:18:34;;;;;;;5.97;1.35;;;;;;;17.87;41.10;100784.03;5053161;28;20468;-73
2021/11/03 08:21:00;;;;;;;5.77;1.73;;;;;;;18.20;40.21;100794.59;5052924;28;20519;-73
2021/11/03 08:23:26;;;;;;;4.82;1.88;;;;;;;18.13;40.53;100799.97;5053360;28;20083;-73
2021/11/03 08:25:53;;;;;;;8.05;1.80;;;;;;;18.11;40.84;100804.28;5052981;28;20029;-73
2021/11/03 08:28:18;;;;;;;8.95;2.08;;;;;;;18.41;40.36;100808.06;5035296;28;20025;-72
2021/11/03 08:30:47;;;;;;;3.50;1.60;;;;;;;18.55;40.10;100813.09;5053330;28;20035;-72
2021/11/03 08:33:22;;;;;;;3.93;1.27;;;;;;;18.04;40.71;100818.75;5053160;28;20021;-73
2021/11/03 08:35:51;;;;;;;7.78;1.55;;;;;;;18.38;40.35;100819.88;5053485;28;20024;-72
2021/11/03 08:38:21;;;;;;;4.68;1.67;;;;;;;18.48;40.07;100813.75;5053265;28;20040;-73
2021/11/03 08:40:49;;;;;;;6.95;1.30;;;;;;;17.95;41.32;100829.22;5053024;28;20379;-73
2021/11/03 08:43:20;;;;;;;4.80;1.40;;;;;;;18.47;40.10;100828.75;5052970;28;20029;-73
2021/11/03 08:45:45;;;;;;;4.63;2.47;;;;;;;18.69;39.77;100824.47;5052914;28;20017;-72
2021/11/03 08:48:11;;;;;;;5.43;1.40;;;;;;;18.62;40.01;100834.59;5052938;28;20099;-73
2021/11/03 08:50:39;;;;;;;6.47;1.95;;;;;;;18.56;40.14;100832.09;5052648;28;20029;-72
2021/11/03 08:53:06;;;;;;;7.68;2.17;;;;;;;18.67;40.02;100840.66;5052518;28;20025;-73
2021/11/03 08:55:32;;;;;;;6.10;1.27;;;;;;;18.43;40.31;100835.38;5052529;28;20024;-72
2021/11/03 08:58:00;;;;;;;4.45;1.63;;;;;;;18.80;39.60;100833.78;5052553;28;20505;-73
2021/11/03 09:00:31;;;;;;;5.85;1.33;;;;;;;18.66;40.01;100832.69;5052533;28;20036;-73
2021/11/03 09:02:58;;;;;;;7.22;2.35;;;;;;;18.94;39.21;100841.56;5052794;28;20100;-72
2021/11/03 09:05:26;;;;;;;5.93;1.95;;;;;;;18.97;39.32;100845.59;5034579;28;20503;-73
2021/11/03 09:07:52;;;;;;;8.55;2.00;;;;;;;18.86;39.61;100850.91;5034751;28;20033;-73
2021/11/03 09:10:20;;;;;;;3.85;1.13;;;;;;;18.83;39.38;100846.91;5052712;28;20031;-72
2021/11/03 09:12:46;;;;;;;3.50;1.40;;;;;;;18.83;39.56;100846.09;5052503;28;20075;-73
2021/11/03 09:15:14;;;;;;;4.30;1.42;;;;;;;18.90;39.41;100846.25;5052155;28;20032;-73
2021/11/03 09:17:40;;;;;;;5.35;1.40;;;;;;;19.06;38.95;100848.91;5052474;28;20052;-73
2021/11/03 09:20:08;;;;;;;4.75;1.55;;;;;;;19.02;39.03;100859.09;5052357;28;20434;-73
2021/11/03 09:22:36;;;;;;;6.95;1.95;;;;;;;18.92;39.48;100846.66;5052403;28;20021;-73
2021/11/03 09:25:04;;;;;;;4.75;1.30;;;;;;;18.70;39.79;100859.28;5052361;28;20395;-73
2021/11/03 09:27:30;;;;;;;4.95;1.52;;;;;;;18.87;39.21;100852.50;5052041;28;20477;-72
2021/11/03 09:29:55;;;;;;;1.80;1.08;;;;;;;18.65;39.53;100859.53;5052208;28;20088;-73
2021/11/03 09:32:22;;;;;;;5.15;1.70;;;;;;;18.97;38.97;100857.47;5052433;28;20025;-73
2021/11/03 09:34:50;;;;;;;5.93;1.38;;;;;;;19.05;38.85;100863.94;5052209;28;20021;-73
2021/11/03 09:37:20;;;;;;;6.28;1.35;;;;;;;18.73;38.88;100857.75;5052196;28;20108;-73
2021/11/03 09:39:47;;;;;;;4.22;1.25;;;;;;;19.16;38.39;100859.38;5052141;28;20025;-73
2021/11/03 09:42:14;;;;;;;5.22;1.17;;;;;;;18.99;39.02;100857.88;5052032;28;20036;-72
2021/11/03 09:44:42;;;;;;;10.15;2.35;;;;;;;18.93;38.98;100872.38;5051571;28;20025;-73
2021/11/03 09:47:14;;;;;;;11.48;1.38;;;;;;;19.21;38.43;100869.34;5051969;28;20489;-72
2021/11/03 09:49:57;;;;;;;7.60;1.10;;;;;;;19.25;38.49;100871.00;5051897;28;20025;-73
2021/11/03 09:52:26;;;;;;;7.07;1.67;;;;;;;19.27;38.48;100870.63;5036709;28;20040;-73
2021/11/03 09:55:07;;;;;;;10.48;1.63;;;;;;;19.32;38.34;100878.66;5052272;28;20053;-73
2021/11/03 09:57:51;;;;;;;6.82;1.60;;;;;;;19.47;38.12;100885.25;5051972;28;20402;-72
2021/11/03 10:00:26;;;;;;;6.03;1.35;;;;;;;19.63;37.91;100874.84;5033838;28;20095;-73
2021/11/03 10:03:23;;;;;;;3.63;1.45;;;;;;;19.44;37.94;100891.53;5051937;28;20033;-73
2021/11/03 10:06:12;;;;;;;7.50;1.67;;;;;;;19.71;37.69;100882.09;5051486;28;20111;-72
2021/11/03 10:08:40;;;;;;;4.82;1.00;;;;;;;19.70;37.75;100888.81;5051735;28;20033;-73
2021/11/03 10:11:37;;;;;;;4.28;1.08;;;;;;;18.83;38.61;100890.41;5051837;28;20415;-73
2021/11/03 10:14:05;;;;;;;4.07;1.15;;;;;;;19.38;38.17;100894.59;5045878;28;20041;-73
2021/11/03 10:16:38;;;;;;;6.57;1.30;;;;;;;19.18;38.44;100890.25;5051591;28;20021;-73
2021/11/03 10:19:06;;;;;;;5.85;1.25;;;;;;;19.31;38.06;100897.25;5051744;28;20057;-73
2021/11/03 10:21:32;;;;;;;7.38;1.10;;;;;;;19.99;36.92;100894.81;5051619;28;20519;-72
2021/11/03 10:24:23;;;;;;;8.05;1.77;;;;;;;19.81;37.21;100900.09;5051719;28;20096;-73
2021/11/03 10:27:11;;;;;;;5.05;1.10;;;;;;;19.66;37.54;100896.31;5043976;28;20123;-72
2021/11/03 10:29:41;;;;;;;5.22;1.25;;;;;;;20.05;37.03;100898.88;5051785;28;20029;-73
2021/11/03 10:32:07;;;;;;;7.28;2.08;;;;;;;19.92;37.39;100899.09;5051536;28;20024;-73
2021/11/03 10:34:35;;;;;;;7.35;2.35;;;;;;;19.79;37.77;100899.66;5051727;28;20025;-73
2021/11/03 10:37:25;;;;;;;3.95;0.93;;;;;;;20.36;36.75;100901.31;5051712;28;20031;-73
2021/11/03 10:39:51;;;;;;;9.50;2.45;;;;;;;20.18;37.18;100889.97;5052410;28;20025;-73
2021/11/03 10:42:31;;;;;;;4.00;1.33;;;;;;;20.29;37.13;100900.41;5055053;28;20029;-72
2021/11/03 10:45:15;;;;;;;3.35;0.75;;;;;;;20.17;37.33;100904.19;5037190;28;20104;-72
2021/11/03 10:47:44;;;;;;;5.50;1.00;;;;;;;19.91;37.09;100905.81;5055010;28;20505;-71
2021/11/03 10:50:35;;;;;;;10.52;1.45;;;;;;;20.25;36.85;100925.31;5055063;28;20025;-71
2021/11/03 10:53:15;;;;;;;5.43;2.05;;;;;;;20.26;36.90;100909.50;5055143;28;20025;-73
2021/11/03 10:55:45;;;;;;;2.72;1.10;;;;;;;20.47;36.58;100915.34;5054838;28;20360;-72
2021/11/03 10:58:11;;;;;;;4.05;0.90;;;;;;;20.32;36.75;100921.84;5055002;28;20091;-71
2021/11/03 11:00:53;;;;;;;2.90;0.80;;;;;;;20.52;36.40;100920.59;5054979;28;20092;-72
2021/11/03 11:03:24;;;;;;;4.20;1.50;;;;;;;20.27;36.77;100928.53;5054913;28;20029;-72
2021/11/03 11:05:56;;;;;;;6.93;1.23;;;;;;;20.40;36.51;100927.16;5054238;28;20048;-72
2021/11/03 11:08:30;;;;;;;4.88;1.15;;;;;;;20.33;37.06;100931.78;5054699;28;20094;-73
2021/11/03 11:11:08;;;;;;;9.32;2.60;;;;;;;20.61;36.29;100932.19;5054663;28;20032;-73
2021/11/03 11:13:53;;;;;;;5.80;1.48;;;;;;;20.10;37.18;100937.38;5054536;28;20040;-72
2021/11/03 11:16:29;;;;;;;8.52;2.53;;;;;;;20.72;36.24;100935.13;5054709;28;20029;-73
2021/11/03 11:19:15;;;;;;;6.13;1.35;;;;;;;20.66;36.39;100931.88;5054498;28;20056;-73
2021/11/03 11:21:47;;;;;;;7.50;1.35;;;;;;;20.70;36.50;100938.25;5054651;28;20029;-71
2021/11/03 11:24:31;;;;;;;13.82;2.35;;;;;;;20.41;36.99;100934.31;5054453;28;20415;-72
2021/11/03 11:27:21;;;;;;;7.43;1.75;;;;;;;20.80;36.30;100950.72;5054153;28;20044;-71
2021/11/03 11:30:01;;;;;;;4.22;1.23;;;;;;;20.75;36.51;100949.06;5054414;28;20395;-72
2021/11/03 11:32:45;;;;;;;5.88;1.42;;;;;;;20.66;36.43;100954.09;5054513;28;20033;-71